createdAt,value
2019-02-07T00:01:02.867Z,12.93
2019-02-07T00:02:07.076Z,12.03
2019-02-07T00:03:11.465Z,14.30
2019-02-07T00:04:15.619Z,12.47
2019-02-07T00:05:19.699Z,12.45
2019-02-07T00:06:23.766Z,13.83
2019-02-07T00:07:27.868Z,13.35
2019-02-07T00:08:31.930Z,13.05
2019-02-07T00:09:36.002Z,13.43
2019-02-07T00:10:40.088Z,13.85
2019-02-07T00:11:44.270Z,12.98
2019-02-07T00:12:48.339Z,11.50
2019-02-07T00:13:52.691Z,13.08
2019-02-07T00:14:57.366Z,12.37
2019-02-07T00:16:01.459Z,12.13
2019-02-07T00:17:05.678Z,11.40
2019-02-07T00:18:10.052Z,13.22
2019-02-07T00:19:14.163Z,13.18
2019-02-07T00:20:18.327Z,14.33
2019-02-07T00:21:22.499Z,13.28
2019-02-07T00:22:26.614Z,14.43
2019-02-07T00:23:30.802Z,13.68
2019-02-07T00:24:42.574Z,12.63
2019-02-07T00:25:40.715Z,13.25
2019-02-07T00:26:44.791Z,12.63
2019-02-07T00:27:48.958Z,13.03
2019-02-07T00:28:53.025Z,12.63
2019-02-07T00:29:57.283Z,13.03
2019-02-07T00:31:01.751Z,12.50
2019-02-07T00:32:05.838Z,13.35
2019-02-07T00:33:10.330Z,13.18
2019-02-07T00:34:14.423Z,11.68
2019-02-07T00:35:18.502Z,11.20
2019-02-07T00:36:22.591Z,12.65
2019-02-07T00:37:26.679Z,12.80
2019-02-07T00:38:30.773Z,12.65
2019-02-07T00:39:34.860Z,11.75
2019-02-07T00:40:38.939Z,11.57
2019-02-07T00:41:43.086Z,12.10
2019-02-07T00:42:47.167Z,13.85
2019-02-07T00:43:51.326Z,12.73
2019-02-07T00:44:55.398Z,13.25
2019-02-07T00:45:59.758Z,11.85
2019-02-07T00:47:04.314Z,9.83
2019-02-07T00:48:08.746Z,11.43
2019-02-07T00:49:13.088Z,13.50
2019-02-07T00:50:17.184Z,12.43
2019-02-07T00:51:21.263Z,11.10
2019-02-07T00:52:25.339Z,11.48
2019-02-07T00:53:29.438Z,12.95
2019-02-07T00:54:33.591Z,12.15
2019-02-07T00:55:37.674Z,10.80
2019-02-07T00:56:41.901Z,9.60
2019-02-07T00:57:46.047Z,12.68
2019-02-07T00:58:50.219Z,11.12
2019-02-07T00:59:54.366Z,11.00
2019-02-07T01:00:58.467Z,10.75
2019-02-07T01:02:02.828Z,12.18
2019-02-07T01:03:07.951Z,13.30
2019-02-07T01:04:12.586Z,12.25
2019-02-07T01:05:16.930Z,12.70
2019-02-07T01:06:21.108Z,12.65
2019-02-07T01:07:25.191Z,12.73
2019-02-07T01:08:29.303Z,11.45
2019-02-07T01:09:33.413Z,10.05
2019-02-07T01:10:37.566Z,11.63
2019-02-07T01:11:41.684Z,12.60
2019-02-07T01:12:45.887Z,11.28
2019-02-07T01:13:49.961Z,14.68
2019-02-07T01:15:01.588Z,13.55
2019-02-07T01:15:59.923Z,12.68
2019-02-07T01:17:04.008Z,11.85
2019-02-07T01:18:08.546Z,11.83
2019-02-07T01:19:12.996Z,10.93
2019-02-07T01:20:17.220Z,13.25
2019-02-07T01:21:21.368Z,12.75
2019-02-07T01:22:25.535Z,11.43
2019-02-07T01:23:29.612Z,12.68
2019-02-07T01:24:33.737Z,11.73
2019-02-07T01:25:37.895Z,10.38
2019-02-07T01:26:42.019Z,12.30
2019-02-07T01:27:46.339Z,11.50
2019-02-07T01:28:50.418Z,11.65
2019-02-07T01:29:54.523Z,12.45
2019-02-07T01:30:58.610Z,13.30
2019-02-07T01:32:02.693Z,11.73
2019-02-07T01:33:07.151Z,10.70
2019-02-07T01:34:11.893Z,11.90
2019-02-07T01:35:16.351Z,10.88
2019-02-07T01:36:20.435Z,10.48
2019-02-07T01:37:24.949Z,11.43
2019-02-07T01:38:29.025Z,12.28
2019-02-07T01:39:33.099Z,11.18
2019-02-07T01:40:37.216Z,13.50
2019-02-07T01:41:41.286Z,12.05
2019-02-07T01:42:45.363Z,11.50
2019-02-07T01:43:49.434Z,10.88
2019-02-07T01:44:53.507Z,11.22
2019-02-07T01:45:57.616Z,10.98
2019-02-07T01:47:01.767Z,9.70
2019-02-07T01:48:05.880Z,10.18
2019-02-07T01:49:10.779Z,10.82
2019-02-07T01:50:16.582Z,10.38
2019-02-07T01:51:20.671Z,10.15
2019-02-07T01:52:24.747Z,9.88
2019-02-07T01:53:28.966Z,11.08
2019-02-07T01:54:33.035Z,10.93
2019-02-07T01:55:37.112Z,9.80
2019-02-07T01:56:41.369Z,9.45
2019-02-07T01:57:45.535Z,10.90
2019-02-07T01:58:49.636Z,10.88
2019-02-07T01:59:53.707Z,10.82
2019-02-07T02:00:57.877Z,10.25
2019-02-07T02:02:02.025Z,10.65
2019-02-07T02:03:06.232Z,10.28
2019-02-07T02:04:10.846Z,10.23
2019-02-07T02:05:16.284Z,10.15
2019-02-07T02:06:20.876Z,9.85
2019-02-07T02:07:24.967Z,8.95
2019-02-07T02:08:29.115Z,10.38
2019-02-07T02:09:33.189Z,9.73
2019-02-07T02:10:37.267Z,9.48
2019-02-07T02:11:41.407Z,9.85
2019-02-07T02:12:45.531Z,10.70
2019-02-07T02:13:49.599Z,9.58
2019-02-07T02:14:53.670Z,10.45
2019-02-07T02:15:57.773Z,10.63
2019-02-07T02:17:01.924Z,9.90
2019-02-07T02:18:06.103Z,10.18
2019-02-07T02:19:10.665Z,9.85
2019-02-07T02:20:15.114Z,10.40
2019-02-07T02:21:19.378Z,10.18
2019-02-07T02:22:23.948Z,10.88
2019-02-07T02:23:28.074Z,10.63
2019-02-07T02:24:32.148Z,10.23
2019-02-07T02:25:36.215Z,10.05
2019-02-07T02:26:40.286Z,10.50
2019-02-07T02:27:44.391Z,10.13
2019-02-07T02:28:48.543Z,9.98
2019-02-07T02:29:52.682Z,10.00
2019-02-07T02:30:56.998Z,9.53
2019-02-07T02:32:01.113Z,10.75
2019-02-07T02:33:05.341Z,10.58
2019-02-07T02:34:10.008Z,11.18
2019-02-07T02:35:13.754Z,10.70
2019-02-07T02:36:18.208Z,10.03
2019-02-07T02:37:22.771Z,10.38
2019-02-07T02:38:26.834Z,10.65
2019-02-07T02:39:30.910Z,10.53
2019-02-07T02:40:35.000Z,10.60
2019-02-07T02:41:39.171Z,10.90
2019-02-07T02:42:43.340Z,9.98
2019-02-07T02:43:47.419Z,10.18
2019-02-07T02:44:51.515Z,11.20
2019-02-07T02:45:55.580Z,11.68
2019-02-07T02:46:59.731Z,11.05
2019-02-07T02:48:03.834Z,11.20
2019-02-07T02:49:08.133Z,10.60
2019-02-07T02:50:14.580Z,10.63
2019-02-07T02:51:18.663Z,11.80
2019-02-07T02:52:23.036Z,10.48
2019-02-07T02:53:27.383Z,11.85
2019-02-07T02:54:53.531Z,10.63
2019-02-07T02:55:59.987Z,9.40
2019-02-07T02:57:04.263Z,10.75
2019-02-07T02:58:09.086Z,10.53
2019-02-07T02:59:13.724Z,11.38
2019-02-07T03:00:21.004Z,11.18
2019-02-07T03:01:43.060Z,10.53
2019-02-07T03:03:05.401Z,10.50
2019-02-07T03:04:27.823Z,10.85
2019-02-07T03:05:49.740Z,10.05
2019-02-07T03:07:12.666Z,10.70
2019-02-07T03:08:54.185Z,9.85
2019-02-07T03:10:32.389Z,10.13
2019-02-07T03:11:43.750Z,10.38
2019-02-07T03:13:06.839Z,11.03
2019-02-07T03:14:31.260Z,10.50
2019-02-07T03:16:00.379Z,11.05
2019-02-07T03:17:21.847Z,11.03
2019-02-07T03:18:43.967Z,10.25
2019-02-07T03:20:06.235Z,9.98
2019-02-07T03:21:28.304Z,10.25
2019-02-07T03:23:03.740Z,9.98
2019-02-07T03:24:42.164Z,10.90
2019-02-07T03:26:08.347Z,10.40
2019-02-07T03:27:28.463Z,10.60
2019-02-07T03:28:50.307Z,10.05
2019-02-07T03:30:25.446Z,9.90
2019-02-07T03:32:00.723Z,10.35
2019-02-07T03:33:15.089Z,10.75
2019-02-07T03:34:30.252Z,10.53
2019-02-07T03:36:08.531Z,11.10
2019-02-07T03:37:30.247Z,10.05
2019-02-07T03:38:51.579Z,10.08
2019-02-07T03:40:14.621Z,10.23
2019-02-07T03:41:46.895Z,9.48
2019-02-07T03:43:09.259Z,9.08
2019-02-07T03:44:35.447Z,9.93
2019-02-07T03:46:04.606Z,9.43
2019-02-07T03:47:30.784Z,9.90
2019-02-07T03:48:43.136Z,10.10
2019-02-07T03:50:07.382Z,9.53
2019-02-07T03:51:21.858Z,9.48
2019-02-07T03:52:39.578Z,10.55
2019-02-07T03:54:05.436Z,10.08
2019-02-07T03:55:19.879Z,9.13
2019-02-07T03:56:58.141Z,10.70
2019-02-07T03:58:19.956Z,9.83
2019-02-07T03:59:52.019Z,10.25
2019-02-07T04:01:11.089Z,9.28
2019-02-07T04:02:33.017Z,9.80
2019-02-07T04:03:56.055Z,9.78
2019-02-07T04:05:34.491Z,10.63
2019-02-07T04:06:57.503Z,9.65
2019-02-07T04:08:23.955Z,10.13
2019-02-07T04:10:05.154Z,10.18
2019-02-07T04:11:34.215Z,10.10
2019-02-07T04:12:57.622Z,9.43
2019-02-07T04:14:19.323Z,9.95
2019-02-07T04:15:53.063Z,11.10
2019-02-07T04:17:25.226Z,10.18
2019-02-07T04:18:43.137Z,10.08
2019-02-07T04:20:15.315Z,10.60
2019-02-07T04:21:29.854Z,10.68
2019-02-07T04:23:01.954Z,10.35
2019-02-07T04:24:18.075Z,10.82
2019-02-07T04:25:39.160Z,9.88
2019-02-07T04:27:11.134Z,10.95
2019-02-07T04:28:23.943Z,10.93
2019-02-07T04:29:39.615Z,10.63
2019-02-07T04:30:56.839Z,10.05
2019-02-07T04:32:12.415Z,9.60
2019-02-07T04:33:35.344Z,10.38
2019-02-07T04:35:00.305Z,9.95
2019-02-07T04:36:22.127Z,9.90
2019-02-07T04:37:51.971Z,9.58
2019-02-07T04:39:13.863Z,10.53
2019-02-07T04:40:35.660Z,9.25
2019-02-07T04:41:48.523Z,9.53
2019-02-07T04:43:20.387Z,9.78
2019-02-07T04:44:43.399Z,9.75
2019-02-07T04:46:06.480Z,9.85
2019-02-07T04:47:29.876Z,9.80
2019-02-07T04:48:51.872Z,9.15
2019-02-07T04:50:18.364Z,8.48
2019-02-07T04:51:44.660Z,9.40
2019-02-07T04:53:00.683Z,9.55
2019-02-07T04:54:22.603Z,10.40
2019-02-07T04:55:54.912Z,9.28
2019-02-07T04:57:20.722Z,9.95
2019-02-07T04:58:52.859Z,9.55
2019-02-07T05:00:17.905Z,9.65
2019-02-07T05:01:34.695Z,10.40
2019-02-07T05:03:12.863Z,9.53
2019-02-07T05:04:48.367Z,8.70
2019-02-07T05:06:09.823Z,8.83
2019-02-07T05:07:44.968Z,10.30
2019-02-07T05:09:08.120Z,9.93
2019-02-07T05:10:34.306Z,9.68
2019-02-07T05:12:00.483Z,9.18
2019-02-07T05:13:22.347Z,9.88
2019-02-07T05:14:47.313Z,11.12
2019-02-07T05:16:13.399Z,10.43
2019-02-07T05:17:30.211Z,10.48
2019-02-07T05:18:50.283Z,9.53
2019-02-07T05:20:22.454Z,8.03
2019-02-07T05:21:54.374Z,8.95
2019-02-07T05:23:17.483Z,8.98
2019-02-07T05:24:43.363Z,9.00
2019-02-07T05:26:05.066Z,5.78
2019-02-07T05:27:18.811Z,11.08
2019-02-07T05:28:44.959Z,9.63
2019-02-07T05:29:59.484Z,10.00
2019-02-07T05:31:16.167Z,9.43
2019-02-07T05:32:32.863Z,9.68
2019-02-07T05:33:51.817Z,11.73
2019-02-07T05:35:33.009Z,9.35
2019-02-07T05:36:58.903Z,9.30
2019-02-07T05:38:33.811Z,8.23
2019-02-07T05:40:01.176Z,9.08
2019-02-07T05:41:17.675Z,9.23
2019-02-07T05:42:43.707Z,8.78
2019-02-07T05:44:06.972Z,9.35
2019-02-07T05:45:42.130Z,14.50
2019-02-07T05:47:08.353Z,9.93
2019-02-07T05:48:37.725Z,8.45
2019-02-07T05:50:10.180Z,8.70
2019-02-07T05:51:33.218Z,8.83
2019-02-07T05:52:56.519Z,8.68
2019-02-07T05:54:24.100Z,7.55
2019-02-07T05:55:46.051Z,8.65
2019-02-07T05:57:10.839Z,9.13
2019-02-07T05:58:32.835Z,8.98
2019-02-07T05:59:54.885Z,10.05
2019-02-07T06:01:09.843Z,10.63
2019-02-07T06:02:24.363Z,10.95
2019-02-07T06:03:53.567Z,8.98
2019-02-07T06:05:31.752Z,7.85
2019-02-07T06:06:57.858Z,8.43
2019-02-07T06:08:20.883Z,9.28
2019-02-07T06:09:49.919Z,10.05
2019-02-07T06:11:28.463Z,10.15
2019-02-07T06:12:50.347Z,9.58
2019-02-07T06:14:12.475Z,8.50
2019-02-07T06:15:34.207Z,9.70
2019-02-07T06:17:02.998Z,11.20
2019-02-07T06:18:24.879Z,9.98
2019-02-07T06:19:47.903Z,9.88
2019-02-07T06:21:29.250Z,10.53
2019-02-07T06:22:55.059Z,10.30
2019-02-07T06:24:11.446Z,11.48
2019-02-07T06:25:24.312Z,8.30
2019-02-07T06:26:59.128Z,9.98
2019-02-07T06:28:20.782Z,9.38
2019-02-07T06:29:35.521Z,11.05
2019-02-07T06:31:10.791Z,11.30
2019-02-07T06:32:38.091Z,10.10
2019-02-07T06:34:00.196Z,8.88
2019-02-07T06:35:36.032Z,8.25
2019-02-07T06:36:51.329Z,7.30
2019-02-07T06:38:17.200Z,8.28
2019-02-07T06:39:48.067Z,8.08
2019-02-07T06:41:23.443Z,8.70
2019-02-07T06:42:45.239Z,8.38
2019-02-07T06:43:57.092Z,8.05
2019-02-07T06:45:13.828Z,8.10
2019-02-07T06:46:34.786Z,7.92
2019-02-07T06:47:52.139Z,8.03
2019-02-07T06:49:10.798Z,8.40
2019-02-07T06:50:42.881Z,8.18
2019-02-07T06:52:11.876Z,8.15
2019-02-07T06:53:37.915Z,8.65
2019-02-07T06:55:03.692Z,6.85
2019-02-07T06:56:25.676Z,7.90
2019-02-07T06:57:45.658Z,7.45
2019-02-07T06:59:08.798Z,7.37
2019-02-07T07:00:38.602Z,8.70
2019-02-07T07:02:01.487Z,7.87
2019-02-07T07:03:42.988Z,7.83
2019-02-07T07:05:04.620Z,8.08
2019-02-07T07:06:25.503Z,8.55
2019-02-07T07:07:57.958Z,6.85
2019-02-07T07:09:24.719Z,6.90
2019-02-07T07:10:46.770Z,6.75
2019-02-07T07:12:12.825Z,9.90
2019-02-07T07:13:34.779Z,5.30
2019-02-07T07:14:56.783Z,8.20
2019-02-07T07:16:28.735Z,11.30
2019-02-07T07:17:50.702Z,12.82
2019-02-07T07:19:08.585Z,11.43
2019-02-07T07:20:30.716Z,11.95
2019-02-07T07:21:53.821Z,10.55
2019-02-07T07:23:16.913Z,9.63
2019-02-07T07:24:49.493Z,9.43
2019-02-07T07:26:13.406Z,9.38
2019-02-07T07:27:39.457Z,8.40
2019-02-07T07:29:05.347Z,8.48
2019-02-07T07:30:27.206Z,9.25
2019-02-07T07:31:49.111Z,8.70
2019-02-07T07:33:08.788Z,8.83
2019-02-07T07:34:35.228Z,8.90
2019-02-07T07:35:52.836Z,8.90
2019-02-07T07:37:19.245Z,9.93
2019-02-07T07:38:40.981Z,8.35
2019-02-07T07:40:02.975Z,7.15
2019-02-07T07:41:44.282Z,9.03
2019-02-07T07:43:06.135Z,8.60
2019-02-07T07:44:27.720Z,8.53
2019-02-07T07:45:48.075Z,8.00
2019-02-07T07:47:09.832Z,9.20
2019-02-07T07:48:31.590Z,9.33
2019-02-07T07:49:48.027Z,7.97
2019-02-07T07:51:15.551Z,9.60
2019-02-07T07:52:44.844Z,9.38
2019-02-07T07:54:08.013Z,8.68
2019-02-07T07:55:18.982Z,8.50
2019-02-07T07:56:46.924Z,5.78
2019-02-07T07:58:07.175Z,7.50
2019-02-07T07:59:29.339Z,8.85
2019-02-07T08:00:58.223Z,8.73
2019-02-07T08:02:24.091Z,8.08
2019-02-07T08:03:49.019Z,7.53
2019-02-07T08:05:20.951Z,7.75
2019-02-07T08:06:43.995Z,8.00
2019-02-07T08:08:01.245Z,8.15
2019-02-07T08:09:38.063Z,7.85
2019-02-07T08:11:16.292Z,8.60
2019-02-07T08:12:35.357Z,7.40
2019-02-07T08:13:57.715Z,7.22
2019-02-07T08:15:32.821Z,7.60
2019-02-07T08:16:47.082Z,8.03
2019-02-07T08:18:06.872Z,8.63
2019-02-07T08:19:45.727Z,9.20
2019-02-07T08:21:17.566Z,10.80
2019-02-07T08:22:39.479Z,12.28
2019-02-07T08:24:14.806Z,13.00
2019-02-07T08:25:26.118Z,10.05
2019-02-07T08:26:55.323Z,9.73
2019-02-07T08:28:18.407Z,8.60
2019-02-07T08:29:44.188Z,8.28
2019-02-07T08:31:06.151Z,7.83
2019-02-07T08:32:37.875Z,7.45
2019-02-07T08:34:01.191Z,6.12
2019-02-07T08:35:23.821Z,6.17
2019-02-07T08:36:41.451Z,6.35
2019-02-07T08:38:01.852Z,5.75
2019-02-07T08:39:27.899Z,5.90
2019-02-07T08:40:46.391Z,5.72
2019-02-07T08:42:02.488Z,5.58
2019-02-07T08:43:24.627Z,5.20
2019-02-07T08:44:55.305Z,5.75
2019-02-07T08:46:18.440Z,5.10
2019-02-07T08:47:58.683Z,5.40
2019-02-07T08:49:20.755Z,5.00
2019-02-07T08:50:53.515Z,5.40
2019-02-07T08:52:23.046Z,5.70
2019-02-07T08:54:04.317Z,5.40
2019-02-07T08:55:26.368Z,4.92
2019-02-07T08:56:52.204Z,4.95
2019-02-07T08:58:15.332Z,5.15
2019-02-07T08:59:40.982Z,3.95
2019-02-07T09:01:07.196Z,3.92
2019-02-07T09:02:33.755Z,3.60
2019-02-07T09:04:06.035Z,2.98
2019-02-07T09:05:28.411Z,2.83
2019-02-07T09:07:10.191Z,2.83
2019-02-07T09:08:39.338Z,2.92
2019-02-07T09:10:02.422Z,2.12
2019-02-07T09:11:22.735Z,2.40
2019-02-07T09:13:01.133Z,2.45
2019-02-07T09:14:25.444Z,2.83
2019-02-07T09:15:51.376Z,2.65
2019-02-07T09:17:14.356Z,2.58
2019-02-07T09:18:45.628Z,2.55
2019-02-07T09:20:08.812Z,2.55
2019-02-07T09:21:31.080Z,2.22
2019-02-07T09:23:00.144Z,2.60
2019-02-07T09:24:21.795Z,2.40
2019-02-07T09:25:53.979Z,2.37
2019-02-07T09:27:15.667Z,2.02
2019-02-07T09:28:48.067Z,1.90
2019-02-07T09:30:14.202Z,2.08
2019-02-07T09:31:52.517Z,2.05
2019-02-07T09:33:15.603Z,1.50
2019-02-07T09:34:35.391Z,2.40
2019-02-07T09:36:05.335Z,2.35
2019-02-07T09:37:28.916Z,2.33
2019-02-07T09:38:51.303Z,2.10
2019-02-07T09:40:23.275Z,2.33
2019-02-07T09:41:45.358Z,2.00
2019-02-07T09:42:58.117Z,2.72
2019-02-07T09:44:27.255Z,2.05
2019-02-07T09:46:02.611Z,2.72
2019-02-07T09:47:18.166Z,2.60
2019-02-07T09:48:53.255Z,2.77
2019-02-07T09:50:28.728Z,3.50
2019-02-07T09:51:46.756Z,2.80
2019-02-07T09:52:59.518Z,2.87
2019-02-07T09:54:15.183Z,2.95
2019-02-07T09:55:47.175Z,3.08
2019-02-07T09:57:05.973Z,2.70
2019-02-07T09:58:41.296Z,3.25
2019-02-07T10:00:04.321Z,2.47
2019-02-07T10:01:32.707Z,2.20
2019-02-07T10:02:42.229Z,2.90
2019-02-07T10:04:23.875Z,2.87
2019-02-07T10:05:43.443Z,2.80
2019-02-07T10:07:05.263Z,2.87
2019-02-07T10:08:40.550Z,2.60
2019-02-07T10:10:02.327Z,2.80
2019-02-07T10:11:40.589Z,1.92
2019-02-07T10:12:58.163Z,2.08
2019-02-07T10:14:27.554Z,2.30
2019-02-07T10:15:42.330Z,2.40
2019-02-07T10:17:08.518Z,3.15
2019-02-07T10:18:38.022Z,2.70
2019-02-07T10:20:07.152Z,1.95
2019-02-07T10:21:42.370Z,2.85
2019-02-07T10:23:00.108Z,2.33
2019-02-07T10:24:22.104Z,2.55
2019-02-07T10:25:48.147Z,2.52
2019-02-07T10:27:17.407Z,2.95
2019-02-07T10:28:43.927Z,2.92
2019-02-07T10:30:07.060Z,3.00
2019-02-07T10:31:29.313Z,2.72
2019-02-07T10:32:55.972Z,2.67
2019-02-07T10:34:25.303Z,2.35
2019-02-07T10:35:54.219Z,3.12
2019-02-07T10:37:16.131Z,3.58
2019-02-07T10:38:38.155Z,2.77
2019-02-07T10:40:07.517Z,3.05
2019-02-07T10:41:36.775Z,3.02
2019-02-07T10:43:08.948Z,3.17
2019-02-07T10:44:30.852Z,2.62
2019-02-07T10:46:02.786Z,4.17
2019-02-07T10:47:25.807Z,2.08
2019-02-07T10:48:47.582Z,2.47
2019-02-07T10:50:13.651Z,3.08
2019-02-07T10:51:33.583Z,3.10
2019-02-07T10:53:11.821Z,4.03
2019-02-07T10:54:38.163Z,3.00
2019-02-07T10:56:01.218Z,2.90
2019-02-07T10:57:22.693Z,2.52
2019-02-07T10:58:51.918Z,3.55
2019-02-07T11:00:11.079Z,3.17
2019-02-07T11:01:24.531Z,2.98
2019-02-07T11:02:45.723Z,3.50
2019-02-07T11:04:07.434Z,3.05
2019-02-07T11:05:27.787Z,3.65
2019-02-07T11:06:54.855Z,3.85
2019-02-07T11:08:16.352Z,2.40
2019-02-07T11:09:51.859Z,3.92
2019-02-07T11:11:13.491Z,2.58
2019-02-07T11:12:43.687Z,2.90
2019-02-07T11:14:06.104Z,2.95
2019-02-07T11:15:33.177Z,3.37
2019-02-07T11:17:03.881Z,3.00
2019-02-07T11:18:37.630Z,2.70
2019-02-07T11:20:04.501Z,3.35
2019-02-07T11:21:33.734Z,2.92
2019-02-07T11:22:52.792Z,3.22
2019-02-07T11:24:18.611Z,3.17
2019-02-07T11:25:54.544Z,2.60
2019-02-07T11:27:16.192Z,2.70
2019-02-07T11:28:39.287Z,3.95
2019-02-07T11:30:02.356Z,3.33
2019-02-07T11:31:37.655Z,3.22
2019-02-07T11:33:12.764Z,2.92
2019-02-07T11:34:45.939Z,2.33
2019-02-07T11:36:08.493Z,3.37
2019-02-07T11:37:34.387Z,3.22
2019-02-07T11:38:56.303Z,2.60
2019-02-07T11:40:19.011Z,3.00
2019-02-07T11:41:51.300Z,2.75
2019-02-07T11:43:20.251Z,3.95
2019-02-07T11:44:58.596Z,3.35
2019-02-07T11:46:25.503Z,2.92
2019-02-07T11:47:40.784Z,2.75
2019-02-07T11:49:07.008Z,2.95
2019-02-07T11:50:35.251Z,3.45
2019-02-07T11:52:04.691Z,3.08
2019-02-07T11:53:33.143Z,3.35
2019-02-07T11:54:54.431Z,3.72
2019-02-07T11:56:32.648Z,2.27
2019-02-07T11:58:01.491Z,2.80
2019-02-07T11:59:24.551Z,3.35
2019-02-07T12:00:40.647Z,5.47
2019-02-07T12:02:19.080Z,3.05
2019-02-07T12:03:36.877Z,2.10
2019-02-07T12:05:09.411Z,2.92
2019-02-07T12:06:41.741Z,2.92
2019-02-07T12:08:07.502Z,2.50
2019-02-07T12:09:33.655Z,2.47
2019-02-07T12:11:06.108Z,3.70
2019-02-07T12:12:32.097Z,3.47
2019-02-07T12:13:47.079Z,2.80
2019-02-07T12:15:28.322Z,3.45
2019-02-07T12:16:54.138Z,6.97
2019-02-07T12:18:20.456Z,3.77
2019-02-07T12:19:42.082Z,3.02
2019-02-07T12:21:03.775Z,2.92
2019-02-07T12:22:25.820Z,2.95
2019-02-07T12:23:49.284Z,3.25
2019-02-07T12:25:14.813Z,3.25
2019-02-07T12:26:37.907Z,2.90
2019-02-07T12:28:03.967Z,2.45
2019-02-07T12:29:30.012Z,2.27
2019-02-07T12:31:02.212Z,3.08
2019-02-07T12:32:21.703Z,2.70
2019-02-07T12:33:50.583Z,3.33
2019-02-07T12:35:23.850Z,2.47
2019-02-07T12:36:48.475Z,2.62
2019-02-07T12:38:20.372Z,2.47
2019-02-07T12:39:37.442Z,2.83
2019-02-07T12:40:59.068Z,3.17
2019-02-07T12:42:25.683Z,2.08
2019-02-07T12:43:47.995Z,2.10
2019-02-07T12:45:09.708Z,2.60
2019-02-07T12:46:31.691Z,2.60
2019-02-07T12:48:05.428Z,2.77
2019-02-07T12:49:29.288Z,2.70
2019-02-07T12:50:51.043Z,2.70
2019-02-07T12:52:12.799Z,2.42
2019-02-07T12:53:34.728Z,2.90
2019-02-07T12:54:44.992Z,3.47
2019-02-07T12:56:14.256Z,2.40
2019-02-07T12:57:41.224Z,1.80
2019-02-07T12:59:04.371Z,2.60
2019-02-07T13:00:27.629Z,2.80
2019-02-07T13:02:06.636Z,2.30
2019-02-07T13:03:28.634Z,2.40
2019-02-07T13:04:53.368Z,3.00
2019-02-07T13:06:10.009Z,8.28
2019-02-07T13:07:32.062Z,5.37
2019-02-07T13:08:55.095Z,3.10
2019-02-07T13:10:15.602Z,2.75
2019-02-07T13:11:57.149Z,2.90
2019-02-07T13:13:22.098Z,2.45
2019-02-07T13:14:35.091Z,3.17
2019-02-07T13:16:03.961Z,3.00
2019-02-07T13:17:29.882Z,3.42
2019-02-07T13:18:52.143Z,2.90
2019-02-07T13:20:10.226Z,2.75
2019-02-07T13:21:45.688Z,2.40
2019-02-07T13:23:07.676Z,2.20
2019-02-07T13:24:29.718Z,2.27
2019-02-07T13:25:47.359Z,2.33
2019-02-07T13:27:16.267Z,2.33
2019-02-07T13:28:37.996Z,2.12
2019-02-07T13:30:13.238Z,1.87
2019-02-07T13:31:35.237Z,1.55
2019-02-07T13:33:01.466Z,2.60
2019-02-07T13:34:26.575Z,2.33
2019-02-07T13:36:01.974Z,2.35
2019-02-07T13:37:34.751Z,1.98
2019-02-07T13:39:10.063Z,1.70
2019-02-07T13:40:31.986Z,1.90
2019-02-07T13:41:54.016Z,1.90
2019-02-07T13:43:11.525Z,2.10
2019-02-07T13:44:40.396Z,2.20
2019-02-07T13:46:06.608Z,2.00
2019-02-07T13:47:28.672Z,2.47
2019-02-07T13:49:07.357Z,2.40
2019-02-07T13:50:32.411Z,2.27
2019-02-07T13:52:08.248Z,2.17
2019-02-07T13:53:28.440Z,2.58
2019-02-07T13:55:00.453Z,1.98
2019-02-07T13:56:14.067Z,1.85
2019-02-07T13:57:49.447Z,1.82
2019-02-07T13:59:15.915Z,2.10
2019-02-07T14:00:44.726Z,2.20
2019-02-07T14:02:19.911Z,2.08
2019-02-07T14:03:42.226Z,1.95
2019-02-07T14:05:14.389Z,1.90
2019-02-07T14:06:52.887Z,1.85
2019-02-07T14:08:38.102Z,2.30
2019-02-07T14:10:04.567Z,1.92
2019-02-07T14:11:24.044Z,1.75
2019-02-07T14:12:50.171Z,2.00
2019-02-07T14:14:19.039Z,1.72
2019-02-07T14:15:45.015Z,2.17
2019-02-07T14:17:08.243Z,1.92
2019-02-07T14:18:34.343Z,2.10
2019-02-07T14:20:03.186Z,1.90
2019-02-07T14:21:26.940Z,2.00
2019-02-07T14:23:02.038Z,1.32
2019-02-07T14:24:40.692Z,2.02
2019-02-07T14:26:02.658Z,1.90
2019-02-07T14:27:17.035Z,1.82
2019-02-07T14:28:38.765Z,2.08
2019-02-07T14:30:11.242Z,1.90
2019-02-07T14:31:33.067Z,1.92
2019-02-07T14:32:47.791Z,1.72
2019-02-07T14:34:23.078Z,1.52
2019-02-07T14:36:01.534Z,2.10
2019-02-07T14:37:24.561Z,2.27
2019-02-07T14:38:53.191Z,1.90
2019-02-07T14:40:28.588Z,1.55
2019-02-07T14:41:49.807Z,1.85
2019-02-07T14:43:08.740Z,1.50
2019-02-07T14:44:30.355Z,1.77
2019-02-07T14:45:46.658Z,1.40
2019-02-07T14:46:51.258Z,1.67
2019-02-07T14:47:55.345Z,1.62
2019-02-07T14:48:59.439Z,1.20
2019-02-07T14:50:14.289Z,1.77
2019-02-07T14:51:10.199Z,1.60
2019-02-07T14:52:14.275Z,2.05
2019-02-07T14:53:18.346Z,1.95
2019-02-07T14:54:22.419Z,2.15
2019-02-07T14:55:26.494Z,1.77
2019-02-07T14:56:30.590Z,1.55
2019-02-07T14:57:34.667Z,1.85
2019-02-07T14:58:38.742Z,2.10
2019-02-07T14:59:43.296Z,1.85
2019-02-07T15:00:47.381Z,1.70
2019-02-07T15:01:51.560Z,1.92
2019-02-07T15:02:55.639Z,1.95
2019-02-07T15:04:00.306Z,1.40
2019-02-07T15:05:04.736Z,2.27
2019-02-07T15:06:08.970Z,2.00
2019-02-07T15:07:13.159Z,2.00
2019-02-07T15:08:17.316Z,1.57
2019-02-07T15:09:22.063Z,2.00
2019-02-07T15:10:26.185Z,1.65
2019-02-07T15:11:30.342Z,2.05
2019-02-07T15:12:34.471Z,1.92
2019-02-07T15:13:38.572Z,1.87
2019-02-07T15:14:43.079Z,1.60
2019-02-07T15:15:47.539Z,1.80
2019-02-07T15:16:51.637Z,1.70
2019-02-07T15:17:55.803Z,1.60
2019-02-07T15:18:59.876Z,1.47
2019-02-07T15:20:04.340Z,1.80
2019-02-07T15:21:09.316Z,2.02
2019-02-07T15:22:13.403Z,1.72
2019-02-07T15:23:17.524Z,2.62
2019-02-07T15:24:21.679Z,2.45
2019-02-07T15:25:25.769Z,2.20
2019-02-07T15:26:29.931Z,2.02
2019-02-07T15:27:33.999Z,1.60
2019-02-07T15:28:38.122Z,2.00
2019-02-07T15:29:42.306Z,1.27
2019-02-07T15:30:46.731Z,2.02
2019-02-07T15:31:50.890Z,2.17
2019-02-07T15:32:54.966Z,1.77
2019-02-07T15:33:59.078Z,1.85
2019-02-07T15:35:03.167Z,1.90
2019-02-07T15:36:08.772Z,1.80
2019-02-07T15:37:12.916Z,1.45
2019-02-07T15:38:17.041Z,1.72
2019-02-07T15:39:21.440Z,1.80
2019-02-07T15:40:25.829Z,1.70
2019-02-07T15:41:30.080Z,1.57
2019-02-07T15:42:34.215Z,1.55
2019-02-07T15:43:38.324Z,2.30
2019-02-07T15:44:42.516Z,1.95
2019-02-07T15:45:46.980Z,2.20
2019-02-07T15:46:54.837Z,1.62
2019-02-07T15:48:03.166Z,1.72
2019-02-07T15:49:13.619Z,1.67
2019-02-07T15:50:37.264Z,2.00
2019-02-07T15:51:37.081Z,1.57
2019-02-07T15:52:41.799Z,1.90
2019-02-07T15:53:48.293Z,1.57
2019-02-07T15:54:52.705Z,1.57
2019-02-07T15:56:02.357Z,1.72
2019-02-07T15:57:08.668Z,1.85
2019-02-07T15:58:19.276Z,2.05
2019-02-07T15:59:47.159Z,2.40
2019-02-07T16:01:06.933Z,1.75
2019-02-07T16:02:26.543Z,1.72
2019-02-07T16:03:51.507Z,1.80
2019-02-07T16:05:06.600Z,1.35
2019-02-07T16:06:14.331Z,1.55
2019-02-07T16:07:25.041Z,1.42
2019-02-07T16:08:38.075Z,2.00
2019-02-07T16:09:48.996Z,1.90
2019-02-07T16:10:56.977Z,1.55
2019-02-07T16:12:09.110Z,1.77
2019-02-07T16:13:26.406Z,1.85
2019-02-07T16:14:35.382Z,1.50
2019-02-07T16:15:48.480Z,1.92
2019-02-07T16:17:00.305Z,2.05
2019-02-07T16:18:06.310Z,1.90
2019-02-07T16:19:19.152Z,1.87
2019-02-07T16:20:24.841Z,3.83
2019-02-07T16:21:31.724Z,14.70
2019-02-07T16:22:42.267Z,6.87
2019-02-07T16:23:52.060Z,2.85
2019-02-07T16:25:06.380Z,1.85
2019-02-07T16:26:17.847Z,1.90
2019-02-07T16:27:32.012Z,1.85
2019-02-07T16:28:39.807Z,1.57
2019-02-07T16:29:56.653Z,1.60
2019-02-07T16:31:06.957Z,2.08
2019-02-07T16:32:16.590Z,1.60
2019-02-07T16:33:39.051Z,1.37
2019-02-07T16:34:43.990Z,1.87
2019-02-07T16:35:56.346Z,1.50
2019-02-07T16:37:05.658Z,1.67
2019-02-07T16:38:10.635Z,1.55
2019-02-07T16:39:20.268Z,1.82
2019-02-07T16:40:32.621Z,1.37
2019-02-07T16:41:43.185Z,1.70
2019-02-07T16:42:56.682Z,1.47
2019-02-07T16:44:02.979Z,2.00
2019-02-07T16:45:13.881Z,1.85
2019-02-07T16:46:23.857Z,1.60
2019-02-07T16:47:36.424Z,2.00
2019-02-07T16:48:52.658Z,1.87
2019-02-07T16:50:02.227Z,2.00
2019-02-07T16:51:21.581Z,2.00
2019-02-07T16:52:31.830Z,2.00
2019-02-07T16:53:42.196Z,2.12
2019-02-07T16:55:15.455Z,2.52
2019-02-07T16:56:25.131Z,2.42
2019-02-07T16:57:37.641Z,2.12
2019-02-07T16:58:53.988Z,2.27
2019-02-07T17:00:05.567Z,1.92
2019-02-07T17:01:20.217Z,2.10
2019-02-07T17:02:35.078Z,1.55
2019-02-07T17:03:44.398Z,1.47
2019-02-07T17:04:59.194Z,2.27
2019-02-07T17:06:16.976Z,1.92
2019-02-07T17:07:36.645Z,1.75
2019-02-07T17:08:44.384Z,1.67
2019-02-07T17:09:59.185Z,1.70
2019-02-07T17:11:18.936Z,1.82
2019-02-07T17:12:34.915Z,1.82